Impacts METAR Board
IDs:

KFLL - Ft Lauderdale-Hollyw, FL, US

Updated at: 0100 UTC 25 Mar 2019
Potential Impact None Slight Moderate High
Time 24/13Z 24/14Z 24/15Z 24/16Z 24/17Z 24/18Z 24/19Z 24/20Z 24/21Z 24/22Z 24/23Z 25/00Z 25/01Z
Temp74 77 77 77 77 79 78 78 77 76 76 74 74
Dewpt56 56 56 57 58 59 58 59 60 60 60 59 59
Altim30.21 30.22 30.23 30.23 30.22 30.19 30.18 30.17 30.15 30.16 30.15 30.15 30.16
VIS10 10 10 10 10 10 10 10 10 10 10 10 10
CIG250 250 250 250 44 60 39 65 70 36 -- 220 --
CoverBKNBKNBKNBKNOVCBKNBKNBKNBKNBKNSCTBKNSCT
FltCatVFRVFRVFRVFRVFRVFRVFRVFRVFRVFRVFRVFRVFR
WX--------------------------
WDir11011011011011090110110100120110100110
WSpd14 14 16 13 16 15 15 13 13 11 12 11 13
WGst-- -- -- -- -- 21 -- 19 -- -- -- -- --
Raw hourly METARs
KFLL 241253Z 11014KT 10SM SCT043 BKN250 23/13 A3021 RMK AO2 SLP229 T02330133
KFLL 241353Z 11014KT 10SM SCT043 BKN250 25/13 A3022 RMK AO2 SLP233 T02500133
KFLL 241453Z 11016KT 10SM FEW041 BKN250 25/13 A3023 RMK AO2 SLP235 T02500133 51014
KFLL 241553Z COR 11013KT 10SM SCT047 BKN250 25/14 A3023 RMK AO2 SLP235 T02500139
KFLL 241653Z 11016KT 10SM BKN044 OVC055 25/14 A3022 RMK AO2 SLP233 T02500144
KFLL 241753Z 09015G21KT 10SM SCT043 BKN060 BKN250 26/15 A3019 RMK AO2 SLP223 T02610150 10267 20228 58011
KFLL 241853Z 11015KT 10SM BKN039 BKN046 BKN250 26/14 A3018 RMK AO2 SLP218 T02560144
KFLL 241953Z 11013G19KT 10SM SCT037 BKN065 BKN250 26/15 A3017 RMK AO2 SLP215 T02560150
KFLL 242053Z 10013KT 10SM SCT036 BKN070 BKN250 25/16 A3015 RMK AO2 SLP209 T02500156 58014
KFLL 242153Z 12011KT 10SM BKN036 BKN050 BKN250 24/16 A3016 RMK AO2 SLP211 T02440156
KFLL 242253Z 11012KT 10SM FEW035 SCT050 SCT110 SCT220 24/16 A3015 RMK AO2 SLP208 T02440156
KFLL 242353Z 10011KT 10SM FEW035 SCT060 SCT110 BKN220 23/15 A3015 RMK AO2 SLP207 T02330150 10267 20233 58002
KFLL 250053Z 11013KT 10SM FEW037 SCT045 SCT220 23/15 A3016 RMK AO2 SLP212 T02330150



Page loaded:  01:39 UTC  |   06:39 PM Pacific  |   07:39 PM Mountain  |   08:39 PM Central  |   09:39 PM Eastern

 

ADVISORIES

FORECASTS

FORECASTS

OBSERVATIONS

USER TOOLS

ABOUT US